Terminal Aerodrome Forecast
Issued by NWS South Bend, IN

Home | Current Version | Previous Version | Graphics & Text | Print | Product List | Glossary On
Versions: 1 2 3 4 5 6 7 8 9 10 11 12 13 14 15 16 17 18 19
000
FTUS43 KIWX 041100
TAFSBN
TAF
KSBN 041131Z 0412/0512 22012G20KT P6SM BKN080
      TEMPO 0412/0415 6SM -SHRA OVC050
     FM041900 28012G20KT P6SM -SHRA VCTS BKN040CB
     FM042300 34008KT 6SM -SHRA BR SCT025 OVC050
     FM050600 08008KT 6SM -SHRA BR OVC035=

USA.gov is the U.S. government's official web portal to all federal, state and local government web resources and services.